Time;durP1;ratioP1;P1;durP2;ratioP2;P2;SDS_P1;SDS_P2;PMS_P1;PMS_P2;Temp;Humidity;BMP_temperature;BMP_pressure;BME280_temperature;BME280_humidity;BME280_pressure;Samples;Min_cycle;Max_cycle;Signal;HPM_P1;HPM_P2
2022/10/18 00:01:25;;;;;;;0.70;0.70;;;17.50;99.90;18.80;102325.00;;;;5074176;28;20250;-68
2022/10/18 00:03:51;;;;;;;0.70;0.70;;;17.50;99.90;18.60;102332.00;;;;5074640;28;20579;-68
2022/10/18 00:06:17;;;;;;;0.70;0.70;;;17.30;99.90;18.80;102329.00;;;;5075889;28;20203;-68
2022/10/18 00:08:42;;;;;;;1.00;1.00;;;17.30;99.90;19.00;102336.00;;;;5074655;28;20167;-67
2022/10/18 00:11:11;;;;;;;0.80;0.80;;;17.30;99.90;18.80;102328.00;;;;5074110;28;20179;-68
2022/10/18 00:13:40;;;;;;;0.80;0.80;;;17.40;99.90;18.80;102341.00;;;;5091257;28;20277;-68
2022/10/18 00:16:12;;;;;;;0.90;0.90;;;17.30;99.90;18.70;102334.00;;;;5074037;28;20179;-68
2022/10/18 00:18:39;;;;;;;0.80;0.80;;;17.20;99.90;19.00;102335.00;;;;5074333;28;20182;-67
2022/10/18 00:21:09;;;;;;;0.90;0.90;;;17.40;99.90;18.90;102338.00;;;;5075773;28;20180;-68
2022/10/18 00:23:35;;;;;;;0.80;0.80;;;17.40;99.90;18.20;102328.00;;;;5074503;28;20211;-68
2022/10/18 00:26:15;;;;;;;0.90;0.90;;;17.20;99.90;18.60;102342.00;;;;5075305;28;20229;-68
2022/10/18 00:28:42;;;;;;;0.80;0.80;;;17.10;99.90;18.60;102343.00;;;;5074214;28;20547;-68
2022/10/18 00:31:23;;;;;;;0.90;0.90;;;17.20;99.90;18.40;102346.00;;;;5073499;28;20218;-68
2022/10/18 00:33:53;;;;;;;1.07;1.07;;;17.20;99.90;18.10;102346.00;;;;5074370;28;20171;-67
2022/10/18 00:36:19;;;;;;;8.33;7.70;;;17.10;99.90;18.10;102336.00;;;;5074158;28;20187;-68
2022/10/18 00:38:47;;;;;;;0.80;0.80;;;17.00;99.90;18.10;102342.00;;;;5074219;28;20167;-67
2022/10/18 00:41:19;;;;;;;0.80;0.80;;;16.90;99.90;18.20;102343.00;;;;5073586;28;20549;-67
2022/10/18 00:44:03;;;;;;;0.80;0.80;;;16.90;99.90;18.20;102353.00;;;;5074018;28;20176;-67
2022/10/18 00:46:35;;;;;;;0.90;0.90;;;16.80;99.90;18.30;102338.00;;;;5073487;28;20182;-67
2022/10/18 00:49:16;;;;;;;0.80;0.80;;;16.90;99.90;18.30;102289.00;;;;5073779;28;20601;-68
2022/10/18 00:51:58;;;;;;;0.90;0.90;;;16.90;99.90;18.20;102347.00;;;;5073854;28;20206;-68
2022/10/18 00:54:25;;;;;;;0.90;0.90;;;16.80;99.90;18.40;102323.00;;;;5056488;28;20188;-67
2022/10/18 00:56:51;;;;;;;1.17;1.17;;;16.90;99.90;18.80;102294.00;;;;5072990;28;20198;-67
2022/10/18 00:59:18;;;;;;;0.80;0.80;;;17.10;99.90;18.80;102311.00;;;;5073305;28;20702;-68
2022/10/18 01:01:44;;;;;;;0.80;0.80;;;17.20;99.90;18.40;102339.00;;;;5073324;28;20212;-68
2022/10/18 01:04:13;;;;;;;0.90;0.90;;;17.10;99.90;18.70;102331.00;;;;5073319;28;20187;-68
2022/10/18 01:06:56;;;;;;;0.90;0.90;;;17.10;99.90;18.50;102332.00;;;;5073482;28;20244;-67
2022/10/18 01:09:38;;;;;;;0.80;0.80;;;17.10;99.90;18.70;102344.00;;;;5073441;28;20178;-68
2022/10/18 01:12:23;;;;;;;0.80;0.80;;;17.10;99.90;18.60;102340.00;;;;5073135;28;20194;-67
2022/10/18 01:15:21;;;;;;;0.90;0.90;;;17.10;99.90;18.50;102348.00;;;;5072917;28;20174;-68
2022/10/18 01:18:29;;;;;;;0.90;0.90;;;17.10;99.90;18.60;102340.00;;;;5087348;28;20230;-68
2022/10/18 01:21:30;;;;;;;0.90;0.90;;;17.10;99.90;18.80;102341.00;;;;5073557;28;20197;-67
2022/10/18 01:24:30;;;;;;;0.90;0.90;;;17.30;99.90;18.80;102347.00;;;;5073458;28;20179;-68
2022/10/18 01:27:25;;;;;;;0.90;0.90;;;17.30;99.90;18.50;102357.00;;;;5073946;28;20182;-68
2022/10/18 01:30:34;;;;;;;0.87;0.87;;;17.20;99.90;19.00;102353.00;;;;5072474;28;20189;-68
2022/10/18 01:33:12;;;;;;;0.90;0.90;;;17.30;99.90;19.30;102344.00;;;;5069882;28;20584;-68
2022/10/18 01:35:46;;;;;;;0.90;0.90;;;17.60;99.90;19.30;102343.00;;;;5073846;28;20182;-67
2022/10/18 01:38:16;;;;;;;0.80;0.80;;;17.70;99.90;19.30;102342.00;;;;5072972;28;20181;-68
2022/10/18 01:40:45;;;;;;;0.80;0.80;;;17.80;99.90;19.20;102330.00;;;;5072574;28;20188;-68
2022/10/18 01:43:12;;;;;;;1.97;1.87;;;17.80;99.90;19.30;102345.00;;;;5072498;28;20189;-68
2022/10/18 01:45:39;;;;;;;0.80;0.80;;;17.80;99.90;18.90;102300.00;;;;5089356;28;20184;-68
2022/10/18 01:48:05;;;;;;;0.70;0.70;;;17.60;99.90;18.70;102353.00;;;;5072868;28;20228;-68
2022/10/18 01:50:33;;;;;;;0.80;0.80;;;17.40;99.90;19.30;102357.00;;;;5072632;28;20182;-67
2022/10/18 01:53:00;;;;;;;0.70;0.70;;;17.60;99.90;19.00;102312.00;;;;5072268;28;20228;-67
2022/10/18 01:56:08;;;;;;;0.80;0.80;;;17.70;99.90;19.00;102325.00;;;;5072376;28;20183;-67
2022/10/18 01:59:06;;;;;;;0.77;0.77;;;17.60;99.90;19.00;102360.00;;;;5073733;28;20182;-68
2022/10/18 02:02:05;;;;;;;0.70;0.70;;;17.60;99.90;19.00;102365.00;;;;5073285;28;20219;-68
2022/10/18 02:05:03;;;;;;;0.80;0.80;;;17.50;99.90;18.60;102318.00;;;;5072240;28;20545;-68
2022/10/18 02:08:13;;;;;;;1.10;1.10;;;17.40;99.90;19.30;102310.00;;;;5072656;28;20206;-67
2022/10/18 02:10:58;;;;;;;0.70;0.70;;;17.70;99.90;18.90;102362.00;;;;5072641;28;20204;-67
2022/10/18 02:13:29;;;;;;;5.07;4.87;;;17.60;99.90;19.00;102361.00;;;;5072037;28;20201;-67
2022/10/18 02:16:02;;;;;;;0.70;0.70;;;17.60;99.90;18.80;102364.00;;;;5072295;28;20200;-67
2022/10/18 02:18:37;;;;;;;0.60;0.60;;;17.50;99.90;18.60;102355.00;;;;5072378;28;20656;-67
2022/10/18 02:21:07;;;;;;;0.60;0.60;;;17.30;99.90;18.70;102365.00;;;;5071944;28;20177;-67
2022/10/18 02:23:34;;;;;;;0.70;0.70;;;17.30;99.90;18.80;102357.00;;;;5072061;28;20178;-68
2022/10/18 02:26:00;;;;;;;0.70;0.70;;;17.30;99.90;18.70;102370.00;;;;5072418;28;20254;-67
2022/10/18 02:28:26;;;;;;;0.70;0.70;;;17.20;99.90;18.50;102366.00;;;;5071775;28;20179;-68
2022/10/18 02:31:19;;;;;;;0.70;0.70;;;17.10;99.90;18.90;102367.00;;;;5072037;28;20187;-67
2022/10/18 02:33:51;;;;;;;0.80;0.80;;;17.20;99.90;19.10;102371.00;;;;5073039;28;20211;-67
2022/10/18 02:36:33;;;;;;;0.80;0.80;;;17.50;99.90;19.00;102365.00;;;;5072320;28;20618;-67
2022/10/18 02:39:15;;;;;;;0.80;0.80;;;17.60;99.90;19.00;102357.00;;;;5072163;28;20198;-68
2022/10/18 02:41:42;;;;;;;0.80;0.80;;;17.50;99.90;18.90;102373.00;;;;5071628;28;20208;-68
2022/10/18 02:44:11;;;;;;;0.80;0.80;;;17.40;99.90;18.60;102376.00;;;;5071989;28;20253;-68
2022/10/18 02:46:38;;;;;;;0.80;0.80;;;17.30;99.90;18.70;102348.00;;;;5073265;28;20198;-68
2022/10/18 02:49:04;;;;;;;2.40;2.30;;;17.30;99.90;18.70;102372.00;;;;5072986;28;20605;-67
2022/10/18 02:51:30;;;;;;;0.70;0.70;;;17.20;99.90;18.40;102361.00;;;;5071923;28;20213;-68
2022/10/18 02:53:59;;;;;;;1.07;1.07;;;17.20;99.90;18.50;102349.00;;;;5071886;28;20185;-68
2022/10/18 02:56:25;;;;;;;0.70;0.70;;;17.10;99.90;18.80;102350.00;;;;5088364;28;20186;-68
2022/10/18 02:58:51;;;;;;;0.73;0.73;;;17.30;99.90;18.70;102369.00;;;;5071953;28;20608;-67
2022/10/18 03:01:19;;;;;;;0.70;0.70;;;17.30;99.90;18.70;102367.00;;;;5071698;28;20187;-67
2022/10/18 03:03:48;;;;;;;0.70;0.70;;;17.30;99.90;18.50;102373.00;;;;5073252;28;20187;-67
2022/10/18 03:06:14;;;;;;;0.70;0.70;;;17.20;99.90;18.70;102361.00;;;;5071888;28;20265;-67
2022/10/18 03:08:39;;;;;;;0.70;0.70;;;17.30;99.90;18.30;102368.00;;;;5071890;28;20286;-68
2022/10/18 03:11:06;;;;;;;0.70;0.70;;;17.10;99.90;18.30;102378.00;;;;5071670;28;20182;-67
2022/10/18 03:13:32;;;;;;;0.60;0.60;;;17.00;99.90;18.40;102376.00;;;;5071788;28;20188;-67
2022/10/18 03:15:59;;;;;;;1.33;1.00;;;17.00;99.90;18.60;102359.00;;;;5071881;28;20185;-68
2022/10/18 03:18:25;;;;;;;0.70;0.70;;;17.10;99.90;18.20;102366.00;;;;5072305;28;20166;-67
2022/10/18 03:20:51;;;;;;;2.23;2.10;;;17.00;99.90;18.30;102373.00;;;;5075259;28;20189;-67
2022/10/18 03:23:17;;;;;;;0.80;0.80;;;16.80;99.90;18.30;102384.00;;;;5076367;28;20210;-67
2022/10/18 03:25:43;;;;;;;0.80;0.80;;;17.00;99.90;18.20;102382.00;;;;5074951;28;20188;-68
2022/10/18 03:28:09;;;;;;;0.80;0.80;;;16.90;99.90;18.20;102381.00;;;;5076419;28;20207;-67
2022/10/18 03:30:35;;;;;;;0.80;0.80;;;16.80;99.90;18.50;102373.00;;;;5075355;28;20225;-67
2022/10/18 03:33:06;;;;;;;0.70;0.70;;;17.00;99.90;18.30;102343.00;;;;5076398;28;20657;-67
2022/10/18 03:35:32;;;;;;;0.70;0.70;;;17.00;99.90;18.40;102367.00;;;;5076322;28;20178;-68
2022/10/18 03:37:58;;;;;;;0.70;0.70;;;17.00;99.90;18.60;102373.00;;;;5058117;28;20180;-67
2022/10/18 03:40:24;;;;;;;0.70;0.70;;;17.00;99.90;18.30;102390.00;;;;5075772;28;20185;-67
2022/10/18 03:42:50;;;;;;;0.70;0.70;;;17.10;99.90;18.00;102378.00;;;;5076150;28;20545;-68
2022/10/18 03:45:16;;;;;;;0.60;0.60;;;16.90;99.90;18.10;102398.00;;;;5076069;28;20176;-67
2022/10/18 03:47:41;;;;;;;0.70;0.70;;;16.90;99.90;18.10;102395.00;;;;5074889;28;20259;-68
2022/10/18 03:50:08;;;;;;;0.60;0.60;;;16.80;99.90;17.90;102398.00;;;;5076005;28;20724;-68
2022/10/18 03:52:34;;;;;;;0.60;0.60;;;16.70;99.90;18.40;102402.00;;;;5075965;28;20220;-68
2022/10/18 03:54:59;;;;;;;0.60;0.60;;;17.00;99.90;18.20;102388.00;;;;5074489;28;20637;-68
2022/10/18 03:57:25;;;;;;;0.70;0.70;;;16.90;99.90;18.40;102339.00;;;;5076204;28;20202;-67
2022/10/18 03:59:51;;;;;;;0.60;0.60;;;16.90;99.90;18.20;102397.00;;;;5074507;28;20178;-68
2022/10/18 04:02:17;;;;;;;1.00;1.00;;;16.90;99.90;18.60;102393.00;;;;5075795;28;20200;-67
2022/10/18 04:04:43;;;;;;;0.60;0.60;;;17.10;99.90;18.50;102398.00;;;;5074669;28;20181;-68
2022/10/18 04:07:16;;;;;;;0.80;0.80;;;17.10;99.90;18.80;102392.00;;;;5074415;28;20191;-67
2022/10/18 04:09:41;;;;;;;0.70;0.70;;;17.30;99.90;18.20;102386.00;;;;5075383;28;20211;-68
2022/10/18 04:12:07;;;;;;;0.70;0.70;;;17.10;99.90;17.90;102388.00;;;;5075697;28;20570;-67
2022/10/18 04:14:33;;;;;;;0.60;0.60;;;16.90;99.90;18.30;102357.00;;;;5074308;28;20187;-68
2022/10/18 04:16:59;;;;;;;0.50;0.50;;;17.00;99.90;18.50;102398.00;;;;5074436;28;20175;-67
2022/10/18 04:19:26;;;;;;;0.73;0.73;;;17.10;99.90;18.80;102390.00;;;;5091097;28;20261;-68
2022/10/18 04:21:52;;;;;;;0.60;0.60;;;17.20;99.90;18.60;102389.00;;;;5074327;28;20708;-67
2022/10/18 04:24:18;;;;;;;0.67;0.67;;;17.20;99.90;18.50;102401.00;;;;5075575;28;20267;-67
2022/10/18 04:26:44;;;;;;;4.57;4.30;;;17.20;99.90;18.20;102406.00;;;;5074639;28;20162;-67
2022/10/18 04:29:10;;;;;;;0.77;0.77;;;17.10;99.90;18.50;102399.00;;;;5073857;28;20184;-68
2022/10/18 04:31:36;;;;;;;0.70;0.70;;;17.00;99.90;18.40;102398.00;;;;5075017;28;20380;-68
2022/10/18 04:34:03;;;;;;;0.80;0.80;;;17.00;99.90;18.70;102406.00;;;;5074029;28;20272;-67
2022/10/18 04:36:30;;;;;;;0.60;0.60;;;17.20;99.90;18.60;102406.00;;;;5073649;28;20642;-67
2022/10/18 04:38:56;;;;;;;0.80;0.80;;;17.20;99.90;18.40;102406.00;;;;5074301;28;20184;-68
2022/10/18 04:41:21;;;;;;;0.87;0.87;;;17.20;99.90;18.20;102404.00;;;;5073785;28;20169;-67
2022/10/18 04:43:47;;;;;;;0.70;0.70;;;17.00;99.90;18.40;102417.00;;;;5073836;28;20202;-67
2022/10/18 04:46:13;;;;;;;0.70;0.70;;;17.00;99.90;18.30;102410.00;;;;5073783;28;20568;-67
2022/10/18 04:48:39;;;;;;;0.80;0.80;;;16.90;99.90;18.10;102409.00;;;;5090556;28;20181;-68
2022/10/18 04:51:05;;;;;;;0.80;0.80;;;16.80;99.90;18.50;102348.00;;;;5073452;28;20187;-68
2022/10/18 04:53:31;;;;;;;0.97;0.97;;;16.90;99.90;18.20;102418.00;;;;5073503;28;20209;-68
2022/10/18 04:55:59;;;;;;;0.60;0.60;;;16.80;99.90;18.20;102409.00;;;;5073446;28;20263;-68
2022/10/18 04:58:25;;;;;;;0.77;0.77;;;16.70;99.90;18.10;102423.00;;;;5074959;28;20178;-67
2022/10/18 05:00:51;;;;;;;0.80;0.80;;;16.70;99.90;18.10;102408.00;;;;5074571;28;20199;-67
2022/10/18 05:03:20;;;;;;;0.80;0.80;;;16.60;99.90;17.90;102399.00;;;;5073386;28;20190;-68
2022/10/18 05:05:46;;;;;;;0.90;0.90;;;16.60;99.90;17.80;102405.00;;;;5073004;28;20191;-67
2022/10/18 05:08:12;;;;;;;0.90;0.90;;;16.40;99.90;17.80;102410.00;;;;5090477;28;20187;-68
2022/10/18 05:10:38;;;;;;;0.80;0.80;;;16.30;99.90;18.20;102342.00;;;;5073170;28;20245;-68
2022/10/18 05:13:04;;;;;;;0.90;0.90;;;16.60;99.90;17.80;102407.00;;;;5073095;28;20213;-67
2022/10/18 05:15:30;;;;;;;1.00;1.00;;;16.50;99.90;17.40;102396.00;;;;5073048;28;20236;-68
2022/10/18 05:17:55;;;;;;;1.00;1.00;;;16.20;99.90;17.40;102393.00;;;;5074375;28;20298;-68
2022/10/18 05:20:21;;;;;;;1.00;1.00;;;16.10;99.90;17.30;102400.00;;;;5072842;28;20774;-67
2022/10/18 05:22:47;;;;;;;10.77;9.93;;;16.00;99.90;17.40;102391.00;;;;5072997;28;20599;-67
2022/10/18 05:25:13;;;;;;;1.00;1.00;;;16.00;99.90;17.30;102392.00;;;;5056339;28;20276;-68
2022/10/18 05:27:39;;;;;;;1.00;1.00;;;16.00;99.90;17.20;102407.00;;;;5074169;28;20203;-68
2022/10/18 05:30:05;;;;;;;0.90;0.90;;;15.90;99.90;17.30;102372.00;;;;5072886;28;20231;-68
2022/10/18 05:32:31;;;;;;;0.90;0.90;;;15.90;99.90;17.50;102398.00;;;;5074057;28;20304;-68
2022/10/18 05:34:57;;;;;;;1.50;1.50;;;15.90;99.90;17.50;102394.00;;;;5073685;28;20269;-67
2022/10/18 05:37:23;;;;;;;0.97;0.97;;;16.00;99.90;17.30;102390.00;;;;5074136;28;20215;-68
2022/10/18 05:39:49;;;;;;;0.87;0.87;;;15.90;99.90;17.00;102405.00;;;;5074113;28;20226;-68
2022/10/18 05:42:14;;;;;;;0.80;0.80;;;15.90;99.90;17.10;102413.00;;;;5073415;28;20195;-67
2022/10/18 05:44:40;;;;;;;0.77;0.77;;;15.80;99.90;17.20;102412.00;;;;5072747;28;20183;-67
2022/10/18 05:47:06;;;;;;;0.80;0.80;;;15.80;99.90;17.10;102418.00;;;;5073735;28;20210;-68
2022/10/18 05:49:32;;;;;;;0.80;0.80;;;15.80;99.90;17.60;102347.00;;;;5073646;28;20610;-67
2022/10/18 05:52:00;;;;;;;1.00;1.00;;;15.90;99.90;17.50;102410.00;;;;5073982;28;20208;-67
2022/10/18 05:54:26;;;;;;;0.90;0.90;;;16.10;99.90;17.20;102395.00;;;;5072689;28;20180;-68
2022/10/18 05:56:52;;;;;;;0.90;0.90;;;15.90;99.90;17.50;102402.00;;;;5073493;28;20172;-67
2022/10/18 05:59:21;;;;;;;1.00;1.00;;;16.00;99.90;17.20;102404.00;;;;5073819;28;20494;-68
2022/10/18 06:02:09;;;;;;;1.10;1.10;;;16.00;99.90;16.70;102406.00;;;;5073422;28;20187;-68
2022/10/18 06:04:45;;;;;;;0.60;0.60;;;15.80;99.90;16.60;102403.00;;;;5072665;28;20182;-67
2022/10/18 06:07:28;;;;;;;0.60;0.60;;;15.50;99.90;16.70;102413.00;;;;5073508;28;20182;-67
2022/10/18 06:09:56;;;;;;;0.80;0.80;;;15.40;99.90;17.10;102410.00;;;;5089018;28;20191;-67
2022/10/18 06:12:42;;;;;;;0.80;0.80;;;15.60;99.90;17.00;102425.00;;;;5072058;28;20696;-68
2022/10/18 06:15:20;;;;;;;0.87;0.87;;;15.60;99.90;16.60;102426.00;;;;5072920;28;20232;-68
2022/10/18 06:17:48;;;;;;;0.90;0.90;;;15.40;99.90;16.40;102426.00;;;;5055800;28;20527;-68
2022/10/18 06:20:14;;;;;;;0.70;0.70;;;15.20;99.90;16.30;102357.00;;;;5071840;28;20182;-67
2022/10/18 06:22:40;;;;;;;0.90;0.90;;;15.10;99.90;16.40;102421.00;;;;5071988;28;20195;-68
2022/10/18 06:25:06;;;;;;;0.80;0.80;;;15.00;99.90;16.40;102427.00;;;;5073453;28;20223;-68
2022/10/18 06:27:33;;;;;;;0.90;0.90;;;15.10;99.90;16.00;102429.00;;;;5073265;28;20186;-67
2022/10/18 06:29:59;;;;;;;0.80;0.80;;;15.00;99.90;16.00;102436.00;;;;5073399;28;20182;-68
2022/10/18 06:32:25;;;;;;;0.70;0.70;;;14.90;99.90;16.40;102428.00;;;;5073409;28;20212;-68
2022/10/18 06:34:51;;;;;;;0.90;0.90;;;14.90;99.90;16.60;102444.00;;;;5072100;28;20185;-68
2022/10/18 06:37:17;;;;;;;0.80;0.80;;;15.10;99.90;16.50;102447.00;;;;5073089;28;20738;-68
2022/10/18 06:39:43;;;;;;;0.90;0.90;;;15.10;99.90;16.50;102450.00;;;;5073314;28;20177;-67
2022/10/18 06:42:08;;;;;;;0.93;0.93;;;15.10;99.90;16.50;102433.00;;;;5072062;28;20194;-67
2022/10/18 06:44:34;;;;;;;1.17;1.17;;;15.10;99.90;16.90;102449.00;;;;5072095;28;20181;-67
2022/10/18 06:47:00;;;;;;;0.70;0.70;;;15.20;99.90;16.80;102447.00;;;;5088733;28;20178;-68
2022/10/18 06:49:26;;;;;;;0.83;0.83;;;15.30;99.90;17.00;102456.00;;;;5071746;28;20182;-68
2022/10/18 06:51:53;;;;;;;0.70;0.70;;;15.50;99.90;16.60;102419.00;;;;5071732;28;20203;-68
2022/10/18 06:54:19;;;;;;;1.00;1.00;;;15.30;99.90;16.70;102463.00;;;;5075537;28;20183;-68
2022/10/18 06:56:47;;;;;;;0.80;0.80;;;15.20;99.90;16.80;102460.00;;;;5075983;28;20270;-68
2022/10/18 06:59:22;;;;;;;1.73;1.73;;;15.20;99.90;16.90;102462.00;;;;5077103;28;20235;-68
2022/10/18 07:01:50;;;;;;;1.33;1.33;;;15.40;99.90;16.80;102467.00;;;;5075163;28;20198;-68
2022/10/18 07:04:18;;;;;;;0.70;0.70;;;15.40;99.90;16.60;102475.00;;;;5076818;28;20275;-67
2022/10/18 07:06:44;;;;;;;0.77;0.77;;;15.40;99.90;16.70;102473.00;;;;5092763;28;20239;-68
2022/10/18 07:09:10;;;;;;;0.70;0.70;;;15.30;99.90;16.70;102482.00;;;;5075581;28;20183;-68
2022/10/18 07:11:39;;;;;;;0.70;0.70;;;15.30;99.90;16.60;102392.00;;;;5075516;28;20202;-68
2022/10/18 07:14:05;;;;;;;0.80;0.80;;;15.30;99.90;16.60;102488.00;;;;5075566;28;20636;-68
2022/10/18 07:16:32;;;;;;;0.80;0.80;;;15.30;99.90;16.50;102495.00;;;;5075308;28;20188;-68
2022/10/18 07:18:58;;;;;;;0.80;0.80;;;15.30;99.90;16.90;102492.00;;;;5076452;28;20184;-68
2022/10/18 07:21:25;;;;;;;0.80;0.80;;;15.40;99.90;17.10;102500.00;;;;5076744;28;20251;-67
2022/10/18 07:23:52;;;;;;;0.80;0.80;;;15.60;99.90;17.40;102500.00;;;;5076544;28;20271;-68
2022/10/18 07:26:26;;;;;;;1.80;1.80;;;15.90;99.90;17.50;102447.00;;;;5075292;28;20182;-68
2022/10/18 07:29:00;;;;;;;1.53;1.50;;;16.10;99.90;17.30;102512.00;;;;5075170;28;20199;-68
2022/10/18 07:31:29;;;;;;;0.70;0.70;;;16.20;99.90;17.30;102515.00;;;;5074518;28;20206;-68
2022/10/18 07:33:55;;;;;;;1.43;1.43;;;16.10;99.90;17.70;102503.00;;;;5075073;28;20193;-68
2022/10/18 07:36:21;;;;;;;0.90;0.90;;;16.30;99.90;17.70;102527.00;;;;5076771;28;20176;-68
2022/10/18 07:38:50;;;;;;;0.60;0.60;;;16.30;99.90;17.80;102536.00;;;;5075144;28;20277;-68
2022/10/18 07:41:16;;;;;;;0.70;0.70;;;16.40;99.90;17.20;102541.00;;;;5076417;28;20171;-68
2022/10/18 07:43:46;;;;;;;0.50;0.50;;;16.30;99.90;17.80;102528.00;;;;5091708;28;20187;-67
2022/10/18 07:46:14;;;;;;;0.70;0.70;;;16.40;99.90;18.10;102511.00;;;;5075014;28;20172;-67
2022/10/18 07:48:40;;;;;;;0.60;0.60;;;16.60;99.90;18.00;102539.00;;;;5074877;28;20177;-68
2022/10/18 07:51:07;;;;;;;0.80;0.80;;;16.60;99.90;18.30;102557.00;;;;5092356;28;20191;-68
2022/10/18 07:53:33;;;;;;;0.97;0.97;;;16.80;99.90;18.30;102484.00;;;;5074733;28;20243;-68
2022/10/18 07:56:06;;;;;;;2.03;1.90;;;17.10;99.90;18.70;102546.00;;;;5074863;28;20697;-68
2022/10/18 07:58:33;;;;;;;0.60;0.60;;;17.20;99.90;18.30;102548.00;;;;5074710;28;20204;-67
2022/10/18 08:01:07;;;;;;;1.60;1.53;;;17.30;99.90;18.70;102544.00;;;;5074260;28;20176;-68
2022/10/18 08:03:34;;;;;;;0.70;0.70;;;17.50;99.90;19.30;102546.00;;;;5075184;28;20203;-67
2022/10/18 08:06:01;;;;;;;0.90;0.90;;;17.90;99.90;19.60;102547.00;;;;5074199;28;20182;-67
2022/10/18 08:08:28;;;;;;;0.83;0.83;;;18.20;99.90;20.20;102546.00;;;;5074413;28;20178;-68
2022/10/18 08:10:54;;;;;;;1.43;1.33;;;18.70;99.90;20.50;102557.00;;;;5074296;28;20190;-68
2022/10/18 08:13:20;;;;;;;3.77;3.57;;;19.00;99.90;20.30;102554.00;;;;5074259;28;20203;-67
2022/10/18 08:15:46;;;;;;;0.90;0.90;;;19.00;99.90;20.50;102558.00;;;;5091229;28;20543;-67
2022/10/18 08:18:12;;;;;;;3.10;3.00;;;19.30;99.90;21.30;102565.00;;;;5074386;28;20184;-67
2022/10/18 08:20:45;;;;;;;1.08;1.08;;;19.70;99.90;21.40;102566.00;;;;5074548;28;20176;-68
2022/10/18 08:23:11;;;;;;;1.10;1.00;;;19.90;99.90;21.80;102506.00;;;;5074550;28;20177;-67
2022/10/18 08:25:37;;;;;;;0.82;0.82;;;20.20;99.90;20.50;102560.00;;;;5075306;28;20178;-68
2022/10/18 08:28:03;;;;;;;1.83;1.75;;;20.10;99.90;21.50;102524.00;;;;5075428;28;20180;-68
2022/10/18 08:30:29;;;;;;;0.30;0.30;;;20.10;99.90;22.10;102592.00;;;;5074175;28;20184;-68
2022/10/18 08:32:55;;;;;;;0.20;0.20;;;20.50;99.90;22.00;102580.00;;;;5073713;28;20217;-67
2022/10/18 08:35:20;;;;;;;0.38;0.38;;;20.60;99.90;22.30;102589.00;;;;5073983;28;20494;-68
2022/10/18 08:37:47;;;;;;;0.20;0.20;;;20.80;99.90;22.60;102611.00;;;;5075223;28;20177;-68
2022/10/18 08:40:14;;;;;;;0.20;0.20;;;21.10;99.90;21.40;102592.00;;;;5073814;28;20178;-68
2022/10/18 08:43:19;;;;;;;0.20;0.20;;;20.80;99.90;22.60;102613.00;;;;5074376;28;20657;-67
2022/10/18 08:45:47;;;;;;;0.20;0.20;;;21.00;99.90;22.60;102588.00;;;;5074722;28;20251;-67
2022/10/18 08:48:24;;;;;;;0.20;0.20;;;21.30;99.90;22.60;102616.00;;;;5073978;28;20182;-67
2022/10/18 08:50:53;;;;;;;0.20;0.20;;;21.20;99.90;23.70;102623.00;;;;5073480;28;20177;-68
2022/10/18 08:53:28;;;;;;;0.47;0.47;;;21.80;99.90;23.50;102646.00;;;;5073458;28;20773;-68
2022/10/18 08:56:04;;;;;;;0.20;0.20;;;22.00;99.90;23.30;102655.00;;;;5073619;28;20173;-68
2022/10/18 08:58:32;;;;;;;0.17;0.17;;;21.90;99.90;22.30;102624.00;;;;5073784;28;20177;-67
2022/10/18 09:01:40;;;;;;;0.52;0.52;;;21.40;99.90;21.90;102632.00;;;;5073215;28;20586;-67
2022/10/18 09:04:31;;;;;;;0.15;0.15;;;21.30;99.90;22.40;102594.00;;;;5090168;28;20596;-67
2022/10/18 09:07:30;;;;;;;0.30;0.30;;;20.90;99.90;23.50;102656.00;;;;5073200;28;20169;-67
2022/10/18 09:10:18;;;;;;;0.20;0.20;;;21.50;99.90;23.20;102676.00;;;;5074639;28;20173;-67
2022/10/18 09:13:11;;;;;;;0.20;0.20;;;22.10;99.90;23.30;102657.00;;;;5074261;28;20205;-67
2022/10/18 09:15:58;;;;;;;0.38;0.38;;;22.10;99.90;22.80;102679.00;;;;5073494;28;20514;-68
2022/10/18 09:19:25;;;;;;;0.52;0.52;;;22.30;99.90;22.00;102592.00;;;;5073657;28;20181;-67
2022/10/18 09:21:55;;;;;;;0.65;0.65;;;21.70;99.90;20.70;102647.00;;;;5071846;28;20174;-67
2022/10/18 09:24:45;;;;;;;0.10;0.10;;;21.30;99.90;20.10;102626.00;;;;5073129;28;20191;-67
2022/10/18 09:27:17;;;;;;;0.45;0.45;;;20.40;99.90;20.80;102612.00;;;;5073044;28;20181;-67
2022/10/18 09:30:15;;;;;;;0.55;0.55;;;20.20;99.90;20.90;102629.00;;;;5074119;28;20211;-67
2022/10/18 09:33:04;;;;;;;0.68;0.68;;;20.60;99.90;21.30;102632.00;;;;5072786;28;20223;-67
2022/10/18 09:35:41;;;;;;;0.35;0.35;;;20.60;99.90;21.40;102592.00;;;;5090101;28;20177;-67
2022/10/18 09:38:12;;;;;;;0.80;0.80;;;20.60;99.90;21.40;102606.00;;;;5073109;28;20177;-67
2022/10/18 09:40:56;;;;;;;0.10;0.10;;;20.60;99.90;23.10;102676.00;;;;5072492;28;20185;-67
2022/10/18 09:43:41;;;;;;;0.10;0.10;;;21.20;99.90;23.30;102687.00;;;;5072494;28;20537;-67
2022/10/18 09:46:08;;;;;;;0.20;0.20;;;21.40;99.90;23.00;102702.00;;;;5072453;28;20735;-67
2022/10/18 09:48:52;;;;;;;0.90;0.90;;;21.50;99.90;23.10;102712.00;;;;5072633;28;20180;-67
2022/10/18 09:51:23;;;;;;;5.07;1.88;;;21.60;99.90;21.00;102677.00;;;;5072395;28;20607;-67
2022/10/18 09:54:13;;;;;;;0.35;0.35;;;21.00;99.90;21.10;102622.00;;;;5072621;28;20166;-67
2022/10/18 09:56:50;;;;;;;0.68;0.68;;;20.70;99.90;20.40;102585.00;;;;5088969;28;20177;-67
2022/10/18 09:59:49;;;;;;;0.10;0.10;;;20.00;99.90;22.20;102672.00;;;;5072863;28;20174;-67
2022/10/18 10:02:21;;;;;;;0.20;0.20;;;20.30;99.90;21.50;102659.00;;;;5077464;28;20564;-67
2022/10/18 10:04:55;;;;;;;0.60;0.60;;;20.40;99.90;21.80;102669.00;;;;5072274;28;20177;-67
2022/10/18 10:07:27;;;;;;;3.42;2.40;;;20.80;99.90;19.40;102625.00;;;;5072179;28;20200;-67
2022/10/18 10:10:24;;;;;;;0.10;0.10;;;19.60;99.90;21.30;102657.00;;;;5072477;28;20166;-67
2022/10/18 10:13:21;;;;;;;6.70;2.40;;;19.90;99.90;20.10;102639.00;;;;5071788;28;20675;-66
2022/10/18 10:16:17;;;;;;;0.28;0.28;;;19.70;99.90;21.20;102658.00;;;;5072206;28;20239;-67
2022/10/18 10:18:43;;;;;;;0.30;0.30;;;20.20;99.90;22.00;102664.00;;;;5072762;28;20540;-67
2022/10/18 10:33:36;;;;;;;0.45;0.45;;;21.70;99.90;23.00;102687.00;;;;5126999;27;20535;-67
2022/10/18 10:36:08;;;;;;;0.10;0.10;;;21.80;99.90;24.10;102723.00;;;;5106910;28;20568;-67
2022/10/18 10:38:34;;;;;;;0.55;0.40;;;22.30;99.90;23.60;102736.00;;;;5089475;28;20243;-67
2022/10/18 10:41:00;;;;;;;0.00;0.00;;;22.60;99.90;22.40;102728.00;;;;5106520;28;20169;-67
2022/10/18 10:43:35;;;;;;;0.75;0.60;;;21.90;99.90;23.20;102754.00;;;;5090864;28;20179;-67
2022/10/18 10:46:14;;;;;;;0.10;0.10;;;22.30;99.90;22.10;102680.00;;;;5106497;28;20183;-67
2022/10/18 10:48:56;;;;;;;12.32;1.90;;;21.30;99.90;21.00;102714.00;;;;5106446;28;20200;-67
2022/10/18 10:51:38;;;;;;;0.10;0.10;;;21.10;99.90;23.60;102751.00;;;;5106308;28;20196;-67
2022/10/18 10:54:15;;;;;;;0.35;0.35;;;21.60;99.90;24.40;102761.00;;;;5106033;28;20182;-67
2022/10/18 10:57:11;;;;;;;0.35;0.35;;;22.30;99.90;24.00;102763.00;;;;5106251;28;20175;-67
2022/10/18 10:59:49;;;;;;;0.28;0.28;;;22.80;99.90;25.10;102770.00;;;;5090610;28;20273;-68
2022/10/18 11:02:19;;;;;;;1.13;1.13;;;23.20;99.90;25.60;102778.00;;;;5106531;28;20193;-67
2022/10/18 11:05:25;;;;;;;0.10;0.10;;;23.60;99.90;24.10;102791.00;;;;5090660;28;20195;-67
2022/10/18 11:07:58;;;;;;;0.40;0.40;;;23.40;99.90;24.60;102794.00;;;;5106018;28;20272;-68
2022/10/18 11:10:30;;;;;;;0.10;0.10;;;23.10;99.90;25.00;102789.00;;;;5105807;28;20196;-67
2022/10/18 11:13:23;;;;;;;0.10;0.10;;;23.20;99.90;25.00;102794.00;;;;5105815;28;20247;-67
2022/10/18 11:16:06;;;;;;;14.55;0.55;;;23.50;99.90;24.40;102798.00;;;;5106039;28;20177;-67
2022/10/18 11:18:36;;;;;;;0.10;0.10;;;23.20;99.90;25.30;102786.00;;;;5105778;28;20176;-67
2022/10/18 11:21:23;;;;;;;0.10;0.10;;;23.30;99.90;24.80;102794.00;;;;5088929;28;20165;-67
2022/10/18 11:23:50;;;;;;;0.10;0.10;;;23.40;99.90;25.10;102778.00;;;;5105574;28;20188;-67